Time;durP1;ratioP1;P1;durP2;ratioP2;P2;SDS_P1;SDS_P2;PMS_P1;PMS_P2;Temp;Humidity;BMP_temperature;BMP_pressure;BME280_temperature;BME280_humidity;BME280_pressure;Samples;Min_cycle;Max_cycle;Signal;HPM_P1;HPM_P2
2023/06/13 00:01:48;;;;;;;6.70;4.30;;;18.00;52.60;;;;;;5048480;28;20319;-68
2023/06/13 00:04:21;;;;;;;6.17;3.93;;;17.90;52.50;;;;;;5049029;28;20391;-68
2023/06/13 00:07:00;;;;;;;5.43;3.60;;;17.90;52.50;;;;;;5048403;28;20280;-68
2023/06/13 00:09:28;;;;;;;7.10;3.83;;;17.80;52.50;;;;;;5028660;28;20789;-68
2023/06/13 00:11:54;;;;;;;7.53;4.57;;;17.80;52.20;;;;;;5048326;28;20810;-68
2023/06/13 00:14:21;;;;;;;7.80;4.47;;;17.80;52.30;;;;;;5048808;28;20279;-68
2023/06/13 00:16:48;;;;;;;7.67;4.57;;;17.80;52.10;;;;;;5031810;28;20041;-68
2023/06/13 00:19:14;;;;;;;10.77;4.70;;;17.80;52.40;;;;;;5047807;28;20290;-68
2023/06/13 00:21:41;;;;;;;8.33;4.47;;;17.80;52.40;;;;;;5049056;28;20782;-68
2023/06/13 00:24:07;;;;;;;7.17;4.07;;;17.80;52.20;;;;;;5048873;28;20303;-68
2023/06/13 00:26:33;;;;;;;6.33;4.73;;;17.80;52.40;;;;;;5048915;28;20302;-68
2023/06/13 00:28:59;;;;;;;8.70;4.60;;;17.80;52.50;;;;;;5040455;28;20276;-67
2023/06/13 00:31:32;;;;;;;8.00;4.93;;;17.70;52.50;;;;;;5049450;28;20342;-67
2023/06/13 00:33:59;;;;;;;7.10;5.00;;;17.70;52.50;;;;;;5032524;28;20124;-67
2023/06/13 00:36:27;;;;;;;6.27;4.90;;;17.70;52.40;;;;;;5048780;28;20286;-67
2023/06/13 00:38:54;;;;;;;8.90;5.20;;;17.60;52.40;;;;;;5047751;28;20769;-67
2023/06/13 00:41:20;;;;;;;8.70;5.13;;;17.60;52.50;;;;;;5045781;28;20283;-68
2023/06/13 00:43:46;;;;;;;8.17;4.67;;;17.60;52.50;;;;;;5048157;28;20733;-67
2023/06/13 00:46:18;;;;;;;13.57;5.50;;;17.50;52.50;;;;;;5048435;28;20033;-68
2023/06/13 00:48:44;;;;;;;10.47;5.03;;;17.50;52.50;;;;;;5040976;28;20289;-67
2023/06/13 00:51:16;;;;;;;6.73;4.80;;;17.40;52.40;;;;;;5045279;28;20329;-67
2023/06/13 00:53:45;;;;;;;14.67;5.10;;;17.40;52.40;;;;;;5047366;28;20323;-67
2023/06/13 00:56:11;;;;;;;9.57;4.87;;;17.40;52.20;;;;;;5048457;28;20287;-68
2023/06/13 00:58:37;;;;;;;8.33;4.70;;;17.30;52.30;;;;;;5048354;28;20298;-68
2023/06/13 01:01:04;;;;;;;9.73;5.17;;;17.30;52.50;;;;;;5048484;28;20048;-67
2023/06/13 01:03:34;;;;;;;6.43;4.37;;;17.30;52.60;;;;;;5048008;28;20121;-67
2023/06/13 01:06:00;;;;;;;7.60;4.83;;;17.20;52.80;;;;;;5048218;28;20762;-67
2023/06/13 01:08:27;;;;;;;6.33;4.70;;;17.20;53.20;;;;;;5046085;28;20283;-67
2023/06/13 01:11:04;;;;;;;4.97;4.37;;;17.20;53.00;;;;;;5048351;28;20279;-67
2023/06/13 01:13:47;;;;;;;8.77;4.77;;;17.10;53.10;;;;;;5047890;28;20322;-67
2023/06/13 01:16:24;;;;;;;7.23;4.60;;;17.10;53.20;;;;;;5055644;28;20279;-67
2023/06/13 01:18:52;;;;;;;7.07;4.40;;;17.00;53.30;;;;;;5046976;28;20293;-67
2023/06/13 01:21:19;;;;;;;5.90;4.23;;;17.00;53.40;;;;;;5046951;28;20291;-67
2023/06/13 01:23:49;;;;;;;9.50;4.93;;;17.00;53.80;;;;;;5047734;28;20631;-67
2023/06/13 01:26:40;;;;;;;7.87;4.80;;;16.90;53.80;;;;;;5048175;28;20383;-67
2023/06/13 01:29:07;;;;;;;9.10;4.57;;;16.90;53.90;;;;;;5047128;28;20309;-67
2023/06/13 01:31:35;;;;;;;7.90;4.53;;;16.90;54.20;;;;;;5046609;28;20326;-67
2023/06/13 01:34:01;;;;;;;5.57;4.53;;;16.90;54.40;;;;;;5064732;28;20282;-67
2023/06/13 01:36:27;;;;;;;6.90;4.00;;;16.90;54.50;;;;;;5047752;28;20271;-67
2023/06/13 01:38:54;;;;;;;10.80;4.70;;;16.80;54.80;;;;;;5046255;28;20370;-67
2023/06/13 01:41:20;;;;;;;6.20;4.33;;;16.80;55.30;;;;;;5044069;28;20368;-67
2023/06/13 01:43:45;;;;;;;7.40;4.43;;;16.80;55.40;;;;;;5047368;28;20358;-67
2023/06/13 01:46:33;;;;;;;6.50;4.40;;;16.70;55.40;;;;;;5046840;28;20075;-67
2023/06/13 01:49:35;;;;;;;6.27;4.40;;;16.70;55.80;;;;;;5043519;28;20097;-67
2023/06/13 01:52:41;;;;;;;7.93;4.33;;;16.60;56.00;;;;;;5028466;28;20686;-67
2023/06/13 01:55:20;;;;;;;10.30;4.87;;;16.50;56.00;;;;;;5037057;28;20596;-67
2023/06/13 01:57:54;;;;;;;9.27;3.90;;;16.50;56.00;;;;;;5042658;28;20617;-67
2023/06/13 02:00:20;;;;;;;6.38;3.92;;;16.50;55.80;;;;;;5058019;28;20367;-67
2023/06/13 02:02:47;;;;;;;7.17;4.53;;;16.40;55.80;;;;;;5045401;28;20480;-67
2023/06/13 02:05:13;;;;;;;6.53;3.90;;;16.40;56.00;;;;;;5046018;28;20311;-67
2023/06/13 02:07:39;;;;;;;6.37;4.03;;;16.30;56.30;;;;;;5046870;28;20397;-67
2023/06/13 02:10:06;;;;;;;6.13;3.90;;;16.30;56.50;;;;;;5046925;28;20842;-67
2023/06/13 02:12:32;;;;;;;8.40;4.20;;;16.30;56.60;;;;;;5047307;28;20033;-67
2023/06/13 02:14:59;;;;;;;7.27;4.43;;;16.30;56.70;;;;;;5046237;28;20291;-67
2023/06/13 02:17:26;;;;;;;8.43;4.17;;;16.20;57.30;;;;;;5046341;28;20314;-67
2023/06/13 02:19:52;;;;;;;7.07;4.77;;;16.30;57.20;;;;;;5047176;28;20347;-67
2023/06/13 02:22:18;;;;;;;4.90;3.77;;;16.20;57.20;;;;;;5045878;28;20844;-67
2023/06/13 02:24:44;;;;;;;9.27;4.03;;;16.10;57.40;;;;;;5044635;28;20296;-67
2023/06/13 02:27:10;;;;;;;7.77;4.17;;;16.10;57.00;;;;;;5029039;28;20045;-67
2023/06/13 02:29:36;;;;;;;7.57;4.13;;;16.00;57.00;;;;;;5044408;28;20267;-67
2023/06/13 02:32:02;;;;;;;6.87;4.20;;;16.00;56.80;;;;;;5047241;28;20382;-67
2023/06/13 02:34:28;;;;;;;7.27;4.00;;;15.90;56.90;;;;;;5045517;28;20279;-67
2023/06/13 02:36:54;;;;;;;5.27;4.00;;;15.90;57.10;;;;;;5046722;28;20659;-67
2023/06/13 02:39:20;;;;;;;5.77;3.70;;;15.90;57.00;;;;;;5046228;28;20080;-67
2023/06/13 02:41:45;;;;;;;10.57;4.67;;;15.90;57.00;;;;;;5029876;28;20043;-67
2023/06/13 02:44:11;;;;;;;7.50;4.20;;;15.80;57.40;;;;;;5046204;28;20048;-67
2023/06/13 02:46:37;;;;;;;6.30;4.33;;;15.80;57.30;;;;;;5046481;28;20040;-67
2023/06/13 02:49:02;;;;;;;8.70;4.50;;;15.80;57.20;;;;;;5046418;28;20551;-67
2023/06/13 02:51:28;;;;;;;7.80;4.50;;;15.80;57.30;;;;;;5028931;28;20134;-67
2023/06/13 02:53:54;;;;;;;7.07;4.03;;;15.80;57.40;;;;;;5046565;28;20510;-67
2023/06/13 02:56:19;;;;;;;7.80;4.30;;;15.70;57.40;;;;;;5046313;28;20037;-67
2023/06/13 02:58:45;;;;;;;7.87;4.40;;;15.80;57.80;;;;;;5046011;28;20037;-67
2023/06/13 03:01:12;;;;;;;7.90;4.33;;;15.70;57.50;;;;;;5046755;28;20475;-67
2023/06/13 03:03:38;;;;;;;10.13;4.70;;;15.70;57.70;;;;;;5043291;28;20040;-67
2023/06/13 03:06:04;;;;;;;6.70;4.80;;;15.70;58.10;;;;;;5045504;28;21035;-67
2023/06/13 03:08:30;;;;;;;5.80;4.30;;;15.70;58.50;;;;;;5042840;28;20294;-67
2023/06/13 03:10:56;;;;;;;8.77;4.00;;;15.60;58.70;;;;;;5037222;28;20350;-67
2023/06/13 03:13:22;;;;;;;5.57;4.20;;;15.60;59.50;;;;;;5047825;28;20574;-67
2023/06/13 03:15:47;;;;;;;7.57;4.20;;;15.60;59.90;;;;;;5032081;28;20044;-67
2023/06/13 03:18:17;;;;;;;7.43;4.60;;;15.60;60.50;;;;;;5050461;28;20040;-67
2023/06/13 03:20:45;;;;;;;9.03;4.83;;;15.70;60.60;;;;;;5048831;28;20089;-67
2023/06/13 03:23:12;;;;;;;6.57;4.10;;;15.60;60.80;;;;;;5032816;28;20286;-67
2023/06/13 03:25:42;;;;;;;6.40;4.73;;;15.60;60.70;;;;;;5049842;28;20304;-67
2023/06/13 03:28:08;;;;;;;5.43;4.23;;;15.60;60.50;;;;;;5045375;28;20374;-67
2023/06/13 03:30:35;;;;;;;8.70;4.63;;;15.70;60.30;;;;;;5065020;28;20431;-67
2023/06/13 03:33:01;;;;;;;7.57;5.07;;;15.70;60.10;;;;;;5032325;28;20041;-67
2023/06/13 03:35:27;;;;;;;7.63;4.50;;;15.70;60.10;;;;;;5057175;28;20282;-67
2023/06/13 03:37:53;;;;;;;13.13;4.50;;;15.60;60.00;;;;;;5044284;28;20291;-67
2023/06/13 03:40:19;;;;;;;10.60;4.57;;;15.60;60.10;;;;;;5049475;28;20183;-67
2023/06/13 03:42:44;;;;;;;9.03;4.73;;;15.60;60.30;;;;;;5049500;28;20047;-67
2023/06/13 03:45:10;;;;;;;7.60;4.63;;;15.60;60.60;;;;;;5049954;28;20048;-67
2023/06/13 03:47:37;;;;;;;10.10;4.80;;;15.60;60.70;;;;;;5045802;28;20099;-67
2023/06/13 03:50:03;;;;;;;8.47;4.33;;;15.50;60.90;;;;;;5050177;28;20033;-67
2023/06/13 03:52:29;;;;;;;7.20;4.33;;;15.50;61.10;;;;;;5048860;28;20302;-67
2023/06/13 03:54:55;;;;;;;8.67;4.73;;;15.60;60.90;;;;;;5049427;28;20596;-67
2023/06/13 03:57:21;;;;;;;9.97;4.73;;;15.60;61.00;;;;;;5049378;28;20284;-67
2023/06/13 03:59:47;;;;;;;8.77;4.23;;;15.60;60.90;;;;;;5049455;28;20049;-67
2023/06/13 04:02:13;;;;;;;9.57;4.53;;;15.60;61.00;;;;;;5049184;28;20042;-67
2023/06/13 04:04:45;;;;;;;6.03;4.20;;;15.60;61.00;;;;;;5050029;28;20560;-67
2023/06/13 04:07:11;;;;;;;9.57;4.70;;;15.60;60.60;;;;;;5049413;28;20329;-67
2023/06/13 04:09:37;;;;;;;7.33;4.80;;;15.60;60.50;;;;;;5043051;28;20287;-67
2023/06/13 04:12:03;;;;;;;8.03;4.57;;;15.60;60.50;;;;;;5049123;28;20029;-67
2023/06/13 04:14:29;;;;;;;6.40;4.33;;;15.60;60.50;;;;;;5049837;28;20496;-67
2023/06/13 04:16:57;;;;;;;7.53;4.73;;;15.60;60.90;;;;;;5049549;28;20275;-67
2023/06/13 04:19:23;;;;;;;6.60;4.43;;;15.60;60.80;;;;;;5048999;28;20497;-67
2023/06/13 04:21:51;;;;;;;7.23;4.70;;;15.70;60.80;;;;;;5047412;28;20287;-67
2023/06/13 04:24:17;;;;;;;7.23;4.50;;;15.70;60.60;;;;;;5048050;28;20295;-67
2023/06/13 04:26:45;;;;;;;6.20;4.30;;;15.70;60.80;;;;;;5048518;28;20784;-67
2023/06/13 04:29:13;;;;;;;7.73;4.23;;;15.80;60.70;;;;;;5048527;28;20272;-67
2023/06/13 04:31:39;;;;;;;6.90;4.90;;;15.80;60.70;;;;;;5046378;28;20280;-67
2023/06/13 04:34:07;;;;;;;8.67;5.17;;;15.90;61.00;;;;;;5032195;28;20279;-67
2023/06/13 04:36:35;;;;;;;5.97;4.50;;;16.20;61.40;;;;;;5028029;28;20287;-67
2023/06/13 04:39:10;;;;;;;9.83;4.00;;;16.90;60.00;;;;;;5033908;28;20291;-67
2023/06/13 04:41:37;;;;;;;7.27;4.37;;;17.80;58.00;;;;;;5041996;28;20272;-67
2023/06/13 04:44:10;;;;;;;8.93;4.53;;;18.60;56.30;;;;;;5048261;28;20336;-67
2023/06/13 04:46:38;;;;;;;6.20;4.20;;;19.00;55.00;;;;;;5043054;28;20306;-67
2023/06/13 04:49:08;;;;;;;10.37;4.67;;;19.40;54.40;;;;;;5025909;28;20280;-67
2023/06/13 04:51:34;;;;;;;8.03;4.53;;;19.90;53.30;;;;;;5061154;28;20671;-67
2023/06/13 04:54:00;;;;;;;7.97;4.37;;;20.40;52.00;;;;;;5050484;28;20295;-67
2023/06/13 04:56:27;;;;;;;6.30;4.00;;;20.60;51.40;;;;;;5042928;28;20298;-67
2023/06/13 04:58:55;;;;;;;7.67;4.30;;;21.10;50.20;;;;;;5049742;28;20366;-67
2023/06/13 05:01:26;;;;;;;8.93;4.97;;;21.50;49.90;;;;;;5046970;28;20306;-67
2023/06/13 05:03:53;;;;;;;10.70;4.63;;;22.00;49.10;;;;;;5046303;28;20291;-67
2023/06/13 05:06:19;;;;;;;6.47;4.53;;;22.50;47.80;;;;;;5045604;28;20295;-68
2023/06/13 05:08:46;;;;;;;10.83;5.03;;;22.80;47.00;;;;;;5048068;28;20319;-68
2023/06/13 05:11:12;;;;;;;9.83;5.47;;;23.00;46.50;;;;;;5047189;28;20286;-68
2023/06/13 05:13:38;;;;;;;8.80;4.83;;;23.40;46.00;;;;;;5034725;28;20279;-68
2023/06/13 05:16:04;;;;;;;6.83;4.50;;;23.70;44.50;;;;;;5028385;28;20051;-68
2023/06/13 05:18:31;;;;;;;9.40;5.37;;;23.80;44.50;;;;;;5047828;28;20367;-68
2023/06/13 05:20:57;;;;;;;6.27;4.40;;;23.80;43.90;;;;;;5038392;28;20779;-68
2023/06/13 05:23:23;;;;;;;10.57;4.40;;;23.80;43.40;;;;;;5046442;28;20695;-68
2023/06/13 05:25:49;;;;;;;5.87;4.67;;;23.90;43.20;;;;;;5042990;28;20369;-68
2023/06/13 05:28:16;;;;;;;6.20;4.40;;;23.80;43.70;;;;;;5048507;28;20417;-68
2023/06/13 05:30:42;;;;;;;6.47;4.17;;;23.90;43.40;;;;;;5044821;28;20049;-68
2023/06/13 05:33:08;;;;;;;10.80;5.00;;;23.90;43.70;;;;;;5046852;28;20111;-68
2023/06/13 05:35:34;;;;;;;5.53;4.20;;;24.00;43.40;;;;;;5045046;28;20295;-68
2023/06/13 05:38:00;;;;;;;6.97;4.50;;;24.00;43.40;;;;;;5047847;28;20044;-68
2023/06/13 05:40:26;;;;;;;10.90;4.67;;;24.30;43.00;;;;;;5047956;28;20467;-68
2023/06/13 05:42:51;;;;;;;6.57;4.33;;;24.40;42.20;;;;;;5044480;28;20047;-68
2023/06/13 05:45:17;;;;;;;8.23;4.30;;;24.60;41.90;;;;;;5061754;28;20120;-68
2023/06/13 05:47:42;;;;;;;10.73;4.03;;;24.40;41.10;;;;;;5047194;28;20064;-68
2023/06/13 05:50:08;;;;;;;6.80;4.13;;;24.30;41.40;;;;;;5048208;28;20040;-68
2023/06/13 05:52:35;;;;;;;6.90;4.20;;;24.30;41.90;;;;;;5047602;28;20492;-68
2023/06/13 05:55:01;;;;;;;6.90;4.07;;;24.00;42.10;;;;;;5046605;28;20400;-68
2023/06/13 05:57:43;;;;;;;6.70;3.97;;;23.40;43.20;;;;;;5043983;28;20075;-68
2023/06/13 06:00:14;;;;;;;8.10;3.97;;;23.00;44.00;;;;;;5045844;28;20041;-67
2023/06/13 06:02:48;;;;;;;10.17;4.37;;;23.40;43.50;;;;;;5046744;28;20578;-67
2023/06/13 06:05:15;;;;;;;10.70;4.22;;;23.80;43.10;;;;;;5047575;28;20122;-68
2023/06/13 06:07:41;;;;;;;8.37;4.30;;;24.30;41.70;;;;;;5048017;28;20124;-68
2023/06/13 06:10:08;;;;;;;6.53;4.00;;;24.50;41.60;;;;;;5047364;28;20047;-68
2023/06/13 06:12:34;;;;;;;5.90;3.77;;;24.70;41.00;;;;;;5047073;28;20041;-67
2023/06/13 06:15:00;;;;;;;8.93;3.97;;;24.80;40.50;;;;;;5047187;28;20080;-67
2023/06/13 06:17:27;;;;;;;5.77;4.17;;;24.70;40.60;;;;;;5047645;28;20045;-68
2023/06/13 06:19:53;;;;;;;7.33;4.13;;;24.70;40.20;;;;;;5064363;28;20044;-67
2023/06/13 06:22:19;;;;;;;8.53;4.07;;;24.60;40.30;;;;;;5047621;28;20389;-67
2023/06/13 06:24:44;;;;;;;6.07;3.60;;;24.50;40.00;;;;;;5029906;28;20083;-67
2023/06/13 06:27:13;;;;;;;10.77;4.03;;;24.40;40.10;;;;;;5046859;28;20045;-68
2023/06/13 06:29:39;;;;;;;9.13;4.30;;;24.40;40.10;;;;;;5047499;28;20048;-68
2023/06/13 06:32:06;;;;;;;6.20;3.93;;;24.40;40.00;;;;;;5047300;28;20041;-68
2023/06/13 06:34:32;;;;;;;6.73;3.67;;;24.50;39.80;;;;;;5046117;28;20562;-68
2023/06/13 06:36:58;;;;;;;6.37;3.77;;;24.40;39.20;;;;;;5029744;28;20133;-68
2023/06/13 06:39:24;;;;;;;11.50;4.07;;;24.20;40.20;;;;;;5046351;28;20090;-67
2023/06/13 06:41:50;;;;;;;5.70;3.77;;;24.20;40.30;;;;;;5046854;28;20045;-67
2023/06/13 06:44:16;;;;;;;10.37;3.93;;;24.20;39.80;;;;;;5045644;28;20324;-67
2023/06/13 06:46:41;;;;;;;5.90;3.60;;;24.00;39.50;;;;;;5045692;28;20043;-67
2023/06/13 06:49:07;;;;;;;6.30;3.50;;;23.90;40.10;;;;;;5045957;28;20044;-67
2023/06/13 06:51:33;;;;;;;4.70;3.60;;;23.90;40.10;;;;;;5046694;28;20029;-67
2023/06/13 06:53:59;;;;;;;5.37;3.30;;;23.90;40.10;;;;;;5045082;28;20183;-67
2023/06/13 06:56:25;;;;;;;4.67;3.60;;;23.70;39.40;;;;;;5046624;28;20119;-67
2023/06/13 06:58:51;;;;;;;6.83;3.60;;;23.50;39.20;;;;;;5059450;28;20080;-67
2023/06/13 07:01:18;;;;;;;7.37;3.47;;;23.30;39.20;;;;;;5046732;28;20128;-67
2023/06/13 07:03:45;;;;;;;7.77;3.63;;;23.10;39.70;;;;;;5057957;28;20243;-67
2023/06/13 07:06:13;;;;;;;7.60;3.53;;;23.10;40.00;;;;;;5046505;28;20049;-67
2023/06/13 07:08:39;;;;;;;5.70;3.40;;;23.10;40.40;;;;;;5046366;28;20099;-67
2023/06/13 07:11:05;;;;;;;4.10;2.90;;;23.00;40.90;;;;;;5046706;28;20025;-67
2023/06/13 07:13:32;;;;;;;7.17;3.73;;;23.10;41.70;;;;;;5046237;28;20072;-67
2023/06/13 07:15:59;;;;;;;5.00;3.00;;;23.10;41.30;;;;;;5030696;28;20260;-67
2023/06/13 07:18:26;;;;;;;6.40;3.20;;;23.10;42.10;;;;;;5046212;28;20405;-67
2023/06/13 07:20:51;;;;;;;11.07;3.40;;;23.10;42.50;;;;;;5046118;28;20041;-67
2023/06/13 07:23:17;;;;;;;6.40;3.20;;;23.10;42.40;;;;;;5045648;28;20512;-67
2023/06/13 07:25:43;;;;;;;7.30;3.07;;;23.10;42.40;;;;;;5045668;28;20059;-67
2023/06/13 07:28:10;;;;;;;8.53;3.50;;;23.20;42.00;;;;;;5046366;28;20111;-67
2023/06/13 07:30:36;;;;;;;8.60;3.03;;;23.20;41.20;;;;;;5046259;28;20034;-68
2023/06/13 07:33:01;;;;;;;6.83;3.13;;;23.10;41.40;;;;;;5046438;28;20370;-68
2023/06/13 07:35:27;;;;;;;5.80;3.20;;;23.10;40.60;;;;;;5028845;28;20099;-68
2023/06/13 07:37:53;;;;;;;9.03;3.20;;;23.10;41.60;;;;;;5044880;28;20701;-68
2023/06/13 07:40:21;;;;;;;6.40;2.70;;;23.10;41.60;;;;;;5041434;28;20040;-68
2023/06/13 07:42:48;;;;;;;4.50;2.90;;;23.10;40.70;;;;;;5043107;28;20041;-68
2023/06/13 07:45:14;;;;;;;5.53;2.50;;;23.20;40.60;;;;;;5039851;28;20041;-68
2023/06/13 07:47:40;;;;;;;5.73;3.10;;;23.20;41.20;;;;;;5031822;28;20130;-68
2023/06/13 07:50:06;;;;;;;4.50;2.90;;;23.30;39.80;;;;;;5036808;28;20063;-68
2023/06/13 07:52:32;;;;;;;4.63;2.77;;;23.20;40.30;;;;;;5034744;28;20507;-68
2023/06/13 07:54:58;;;;;;;4.87;2.57;;;23.20;40.00;;;;;;5026782;28;20045;-67
2023/06/13 07:57:24;;;;;;;5.87;2.60;;;23.20;39.80;;;;;;5044107;28;20503;-68
2023/06/13 07:59:50;;;;;;;6.13;2.47;;;23.30;39.60;;;;;;5033403;28;20056;-67
2023/06/13 08:02:16;;;;;;;4.27;2.60;;;23.40;39.90;;;;;;5038326;28;20033;-67
2023/06/13 08:04:42;;;;;;;4.03;2.73;;;23.40;40.70;;;;;;5040133;28;20405;-68
2023/06/13 08:07:09;;;;;;;4.43;3.17;;;23.60;40.60;;;;;;5018903;28;20033;-68
2023/06/13 08:09:35;;;;;;;3.20;2.50;;;23.70;39.90;;;;;;5035641;28;20044;-67
2023/06/13 08:12:01;;;;;;;5.90;2.67;;;23.80;38.90;;;;;;5038509;28;20029;-67
2023/06/13 08:14:26;;;;;;;4.20;2.57;;;23.80;38.30;;;;;;5041611;28;20044;-67
2023/06/13 08:16:52;;;;;;;6.30;2.87;;;23.80;39.00;;;;;;5039114;28;20044;-67
2023/06/13 08:19:18;;;;;;;6.00;2.80;;;23.80;39.90;;;;;;5039425;28;20040;-67
2023/06/13 08:21:46;;;;;;;4.70;2.73;;;23.90;38.00;;;;;;5037663;28;20033;-68
2023/06/13 08:24:12;;;;;;;6.83;2.40;;;24.00;36.80;;;;;;5025339;28;20057;-68
2023/06/13 08:26:38;;;;;;;3.60;2.50;;;24.10;37.10;;;;;;5045393;28;20059;-68
2023/06/13 08:29:04;;;;;;;4.10;2.17;;;24.00;37.80;;;;;;5048374;28;20110;-68
2023/06/13 08:31:31;;;;;;;5.20;2.27;;;24.10;37.20;;;;;;5048056;28;20037;-68
2023/06/13 08:34:00;;;;;;;8.47;2.70;;;24.20;36.90;;;;;;5038724;28;20336;-68
2023/06/13 08:36:27;;;;;;;4.17;2.43;;;24.30;38.20;;;;;;5037044;28;20045;-68
2023/06/13 08:38:57;;;;;;;6.67;2.50;;;24.40;35.90;;;;;;5032634;28;20041;-68
2023/06/13 08:41:24;;;;;;;5.03;2.00;;;24.40;35.50;;;;;;5039806;28;20041;-68
2023/06/13 08:43:51;;;;;;;3.30;2.10;;;24.40;36.60;;;;;;5041582;28;20151;-68
2023/06/13 08:46:16;;;;;;;6.30;2.40;;;24.50;36.20;;;;;;5028857;28;20378;-68
2023/06/13 08:48:42;;;;;;;4.77;2.47;;;24.70;36.30;;;;;;5055696;28;20107;-68
2023/06/13 08:51:16;;;;;;;5.87;2.70;;;24.80;34.70;;;;;;5030091;28;20480;-68
2023/06/13 08:53:49;;;;;;;8.23;2.50;;;24.80;34.50;;;;;;5042011;28;20072;-68
2023/06/13 08:56:15;;;;;;;6.90;2.73;;;24.80;33.10;;;;;;5045625;28;20378;-68
2023/06/13 08:58:43;;;;;;;6.70;2.50;;;24.80;34.50;;;;;;5028806;28;20106;-68
2023/06/13 09:01:10;;;;;;;7.20;2.30;;;24.80;34.10;;;;;;5040537;28;20420;-68
2023/06/13 09:03:37;;;;;;;5.47;2.73;;;24.90;35.10;;;;;;5045966;28;20033;-68
2023/06/13 09:06:06;;;;;;;5.90;2.87;;;24.90;35.10;;;;;;5046403;28;20540;-68
2023/06/13 09:08:34;;;;;;;4.07;2.63;;;25.00;34.80;;;;;;5045018;28;20108;-68
2023/06/13 09:11:00;;;;;;;7.63;2.63;;;25.10;35.30;;;;;;5044983;28;20120;-69
2023/06/13 09:13:28;;;;;;;4.87;2.30;;;25.20;34.40;;;;;;5047075;28;20037;-69
2023/06/13 09:15:54;;;;;;;4.30;2.67;;;25.20;34.90;;;;;;5039800;28;20045;-69
2023/06/13 09:18:20;;;;;;;3.60;2.60;;;25.20;35.80;;;;;;5031355;28;20205;-68
2023/06/13 09:20:46;;;;;;;4.27;2.47;;;25.30;35.00;;;;;;5044118;28;20993;-68
2023/06/13 09:23:16;;;;;;;5.90;3.17;;;25.30;35.20;;;;;;5045037;28;20098;-68
2023/06/13 09:25:44;;;;;;;5.60;2.70;;;25.40;35.30;;;;;;5046820;28;20053;-68
2023/06/13 09:28:30;;;;;;;4.03;2.50;;;25.50;34.80;;;;;;5043266;28;20033;-68
2023/06/13 09:30:58;;;;;;;4.93;2.80;;;25.60;33.60;;;;;;5043151;28;20037;-69
2023/06/13 09:33:25;;;;;;;7.00;3.50;;;25.70;33.30;;;;;;5040642;28;20500;-69
2023/06/13 09:35:51;;;;;;;6.77;2.97;;;25.60;34.10;;;;;;5047635;28;20148;-69
2023/06/13 09:38:24;;;;;;;4.80;2.90;;;25.60;33.80;;;;;;5047406;28;20041;-69
2023/06/13 09:40:56;;;;;;;4.57;2.93;;;25.70;33.90;;;;;;5047967;28;20519;-69
2023/06/13 09:43:23;;;;;;;5.10;2.67;;;25.70;34.00;;;;;;5056310;28;20162;-69
2023/06/13 09:45:50;;;;;;;5.80;3.30;;;25.80;33.70;;;;;;5047387;28;20155;-69
2023/06/13 09:48:17;;;;;;;6.03;3.13;;;25.80;34.10;;;;;;5039581;28;20040;-69
2023/06/13 09:50:43;;;;;;;5.67;2.73;;;25.80;33.80;;;;;;5046993;28;20040;-69
2023/06/13 09:53:09;;;;;;;4.97;3.07;;;25.90;34.80;;;;;;5047111;28;20037;-69
2023/06/13 09:55:36;;;;;;;5.10;2.90;;;26.00;34.90;;;;;;5047077;28;20041;-69
2023/06/13 09:58:02;;;;;;;6.10;3.10;;;26.10;34.50;;;;;;5047224;28;21217;-69
2023/06/13 10:00:32;;;;;;;8.67;3.17;;;26.10;33.70;;;;;;5046788;28;20128;-69
2023/06/13 10:02:58;;;;;;;3.37;2.80;;;26.10;33.60;;;;;;5047224;28;20439;-69
2023/06/13 10:05:24;;;;;;;5.10;3.27;;;26.10;33.20;;;;;;5047443;28;20037;-68
2023/06/13 10:07:51;;;;;;;7.37;3.20;;;26.10;33.40;;;;;;5047556;28;20477;-69
2023/06/13 10:10:17;;;;;;;4.70;3.20;;;26.20;33.90;;;;;;5047518;28;20499;-69
2023/06/13 10:12:52;;;;;;;4.60;3.03;;;26.20;34.80;;;;;;5047691;28;20029;-68
2023/06/13 10:15:39;;;;;;;6.40;2.93;;;26.30;34.70;;;;;;5047549;28;20535;-69
2023/06/13 10:18:14;;;;;;;4.53;2.70;;;26.40;33.70;;;;;;5030887;28;20041;-69
2023/06/13 10:20:41;;;;;;;5.35;3.30;;;26.50;33.50;;;;;;5037635;28;20067;-69
2023/06/13 10:23:08;;;;;;;5.57;3.23;;;26.60;33.90;;;;;;5046461;28;20041;-69
2023/06/13 10:25:36;;;;;;;8.00;3.07;;;26.50;34.10;;;;;;5046720;28;20049;-69
2023/06/13 10:28:17;;;;;;;5.97;2.90;;;26.50;34.10;;;;;;5047008;28;20051;-69
2023/06/13 10:31:00;;;;;;;4.97;2.57;;;26.60;34.10;;;;;;5043030;28;20033;-69
2023/06/13 10:33:49;;;;;;;5.20;2.40;;;26.70;33.60;;;;;;5046813;28;20424;-69
2023/06/13 10:36:24;;;;;;;8.07;2.93;;;26.80;32.90;;;;;;5025480;28;20149;-69
2023/06/13 10:39:15;;;;;;;4.60;2.70;;;26.70;32.90;;;;;;5046584;28;20048;-69
2023/06/13 10:41:53;;;;;;;3.40;2.60;;;26.70;33.50;;;;;;5030965;28;20033;-69
2023/06/13 10:44:25;;;;;;;6.23;3.10;;;26.70;32.80;;;;;;5029955;28;20405;-69
2023/06/13 10:46:51;;;;;;;6.77;2.30;;;26.60;32.70;;;;;;5047220;28;20048;-69
2023/06/13 10:49:17;;;;;;;5.47;2.53;;;26.60;33.20;;;;;;5046630;28;20053;-69
2023/06/13 10:51:45;;;;;;;4.37;2.53;;;26.60;32.80;;;;;;5046833;28;20120;-69
2023/06/13 10:54:12;;;;;;;6.37;2.90;;;26.70;33.50;;;;;;5030193;28;20378;-69
2023/06/13 10:56:41;;;;;;;6.07;2.67;;;26.80;33.70;;;;;;5046752;28;20132;-69
2023/06/13 10:59:12;;;;;;;5.00;2.43;;;26.90;33.30;;;;;;5046653;28;20055;-69
2023/06/13 11:01:42;;;;;;;6.67;2.40;;;27.00;32.70;;;;;;5046309;28;20048;-69
2023/06/13 11:04:21;;;;;;;2.80;2.27;;;27.00;33.20;;;;;;5045220;28;20523;-69
2023/06/13 11:06:54;;;;;;;3.87;2.07;;;27.00;34.20;;;;;;5046430;28;20107;-69
2023/06/13 11:09:20;;;;;;;3.53;2.30;;;27.00;34.30;;;;;;5047031;28;20396;-69
2023/06/13 11:11:47;;;;;;;3.40;2.17;;;27.10;34.10;;;;;;5046433;28;20548;-69
2023/06/13 11:14:13;;;;;;;4.87;2.73;;;27.00;35.10;;;;;;5038449;28;20033;-69
2023/06/13 11:16:40;;;;;;;3.77;1.90;;;27.00;35.10;;;;;;5046532;28;20037;-69
2023/06/13 11:19:17;;;;;;;6.60;2.33;;;27.10;34.70;;;;;;5046111;28;20036;-69
2023/06/13 11:21:45;;;;;;;8.77;2.70;;;27.10;33.70;;;;;;5028358;28;20433;-68
2023/06/13 11:24:14;;;;;;;5.13;2.57;;;27.00;34.40;;;;;;5030424;28;20515;-69
2023/06/13 11:26:44;;;;;;;4.57;1.90;;;27.00;35.00;;;;;;5045900;28;20045;-69
2023/06/13 11:29:11;;;;;;;2.77;1.93;;;27.00;35.00;;;;;;5045758;28;20359;-69
2023/06/13 11:31:39;;;;;;;5.50;2.17;;;27.00;35.10;;;;;;5058875;28;20042;-69
2023/06/13 11:34:13;;;;;;;5.80;1.90;;;26.90;36.30;;;;;;5042938;28;20489;-69
2023/06/13 11:36:43;;;;;;;6.13;2.20;;;26.90;36.80;;;;;;5049143;28;20348;-69
2023/06/13 11:39:30;;;;;;;5.30;2.50;;;26.90;36.30;;;;;;5050015;28;20167;-69
2023/06/13 11:41:57;;;;;;;8.97;2.20;;;26.90;36.60;;;;;;5050448;28;20041;-69
2023/06/13 11:44:23;;;;;;;5.00;2.13;;;26.90;36.80;;;;;;5050422;28;20382;-69
2023/06/13 11:46:50;;;;;;;3.63;1.93;;;26.90;36.60;;;;;;5050794;28;20373;-69
2023/06/13 11:49:16;;;;;;;4.23;1.90;;;26.80;37.20;;;;;;5065936;28;20112;-69
2023/06/13 11:51:43;;;;;;;4.40;2.20;;;26.90;36.10;;;;;;5049922;28;20167;-69
2023/06/13 11:54:10;;;;;;;3.50;1.80;;;26.90;36.00;;;;;;5049834;28;20040;-69
2023/06/13 11:56:40;;;;;;;3.67;1.93;;;26.70;35.30;;;;;;5033541;28;20405;-69
2023/06/13 11:59:21;;;;;;;6.30;1.83;;;26.70;36.00;;;;;;5049942;28;20044;-69
2023/06/13 12:01:49;;;;;;;5.57;1.50;;;26.80;36.40;;;;;;5049516;28;20126;-68
2023/06/13 12:04:16;;;;;;;4.33;1.90;;;26.80;34.60;;;;;;5033482;28;20052;-68
2023/06/13 12:06:42;;;;;;;4.67;1.50;;;26.70;34.40;;;;;;5049300;28;20044;-69
2023/06/13 12:09:07;;;;;;;5.57;1.93;;;26.80;34.50;;;;;;5050069;28;20068;-69
2023/06/13 12:11:33;;;;;;;4.80;1.80;;;26.80;35.00;;;;;;5049258;28;20685;-69
2023/06/13 12:14:01;;;;;;;4.40;1.80;;;26.90;35.00;;;;;;5049060;28;20060;-69
2023/06/13 12:16:48;;;;;;;4.80;1.87;;;26.90;35.00;;;;;;5048830;28;20261;-69
2023/06/13 12:19:19;;;;;;;4.93;1.73;;;26.90;35.80;;;;;;5049304;28;20045;-69
2023/06/13 12:21:45;;;;;;;4.30;1.60;;;26.90;35.40;;;;;;5048943;28;20076;-69
2023/06/13 12:24:11;;;;;;;4.43;2.17;;;26.70;35.60;;;;;;5050129;28;20118;-69
2023/06/13 12:26:43;;;;;;;6.07;1.70;;;26.70;35.80;;;;;;5049216;28;20053;-69
2023/06/13 12:29:11;;;;;;;6.23;1.67;;;26.70;35.70;;;;;;5032801;28;20511;-69
2023/06/13 12:31:41;;;;;;;3.70;1.90;;;26.70;36.40;;;;;;5048983;28;20037;-69
2023/06/13 12:34:08;;;;;;;5.10;2.27;;;26.60;36.00;;;;;;5049177;28;20032;-69
2023/06/13 12:36:40;;;;;;;4.47;1.67;;;26.60;36.90;;;;;;5047173;28;20041;-69
2023/06/13 12:39:09;;;;;;;5.67;2.00;;;26.60;36.70;;;;;;5032856;28;20546;-69
2023/06/13 12:41:37;;;;;;;3.40;1.70;;;26.70;36.50;;;;;;5048600;28;20041;-69
2023/06/13 12:44:03;;;;;;;3.30;1.57;;;26.80;36.80;;;;;;5049140;28;20128;-69
2023/06/13 12:46:29;;;;;;;4.77;2.03;;;27.00;36.60;;;;;;5047370;28;20846;-68
2023/06/13 12:48:55;;;;;;;5.00;1.83;;;26.90;35.90;;;;;;5049207;28;20048;-68
2023/06/13 12:51:27;;;;;;;5.33;1.70;;;26.90;35.80;;;;;;5048816;28;20504;-68